createdAt,value
2023-04-25T00:00:18.878Z,5.40
2023-04-25T00:02:45.763Z,5.95
2023-04-25T00:05:13.120Z,5.88
2023-04-25T00:07:39.998Z,5.88
2023-04-25T00:10:07.689Z,5.88
2023-04-25T00:12:34.922Z,6.18
2023-04-25T00:15:01.898Z,5.90
2023-04-25T00:17:29.410Z,5.93
2023-04-25T00:19:56.913Z,6.50
2023-04-25T00:22:23.521Z,6.50
2023-04-25T00:24:50.493Z,6.43
2023-04-25T00:27:17.372Z,6.32
2023-04-25T00:29:43.965Z,6.15
2023-04-25T00:32:11.019Z,6.30
2023-04-25T00:34:37.710Z,5.72
2023-04-25T00:37:04.414Z,6.15
2023-04-25T00:39:31.455Z,5.55
2023-04-25T00:41:58.941Z,6.22
2023-04-25T00:44:26.186Z,6.22
2023-04-25T00:46:55.316Z,6.13
2023-04-25T00:49:22.174Z,6.07
2023-04-25T00:51:49.270Z,5.93
2023-04-25T00:54:16.756Z,6.22
2023-04-25T00:56:43.949Z,5.85
2023-04-25T00:59:10.899Z,6.63
2023-04-25T01:01:39.219Z,6.20
2023-04-25T01:04:06.240Z,6.20
2023-04-25T01:06:33.220Z,6.15
2023-04-25T01:09:00.696Z,6.53
2023-04-25T01:11:27.507Z,6.85
2023-04-25T01:13:54.202Z,6.60
2023-04-25T01:16:21.523Z,6.13
2023-04-25T01:18:48.908Z,6.55
2023-04-25T01:21:15.884Z,7.18
2023-04-25T01:23:43.763Z,6.65
2023-04-25T01:26:12.465Z,7.35
2023-04-25T01:28:46.680Z,6.43
2023-04-25T01:33:40.256Z,6.07
2023-04-25T01:36:07.389Z,6.00
2023-04-25T01:38:34.336Z,7.07
2023-04-25T01:41:01.064Z,7.10
2023-04-25T01:43:27.983Z,7.53
2023-04-25T01:45:55.378Z,7.93
2023-04-25T01:48:22.120Z,6.47
2023-04-25T01:50:48.948Z,6.30
2023-04-25T01:53:15.885Z,6.72
2023-04-25T01:55:42.685Z,7.20
2023-04-25T01:58:11.023Z,6.82
2023-04-25T02:00:41.780Z,6.95
2023-04-25T02:03:09.598Z,6.97
2023-04-25T02:05:40.475Z,6.53
2023-04-25T02:08:09.297Z,6.82
2023-04-25T02:10:36.525Z,6.60
2023-04-25T02:13:03.929Z,6.70
2023-04-25T02:15:30.896Z,6.80
2023-04-25T02:17:57.825Z,6.90
2023-04-25T02:20:26.085Z,7.13
2023-04-25T02:22:52.846Z,7.18
2023-04-25T02:25:21.061Z,7.00
2023-04-25T02:27:49.319Z,7.00
2023-04-25T02:30:16.370Z,7.25
2023-04-25T02:32:43.204Z,7.78
2023-04-25T02:35:10.990Z,7.30
2023-04-25T02:37:38.956Z,7.03
2023-04-25T02:40:06.751Z,7.22
2023-04-25T02:42:33.770Z,7.22
2023-04-25T02:45:00.440Z,8.13
2023-04-25T02:47:27.346Z,6.68
2023-04-25T02:49:54.218Z,7.10
2023-04-25T02:52:22.245Z,6.72
2023-04-25T02:54:48.861Z,7.25
2023-04-25T02:57:15.966Z,6.97
2023-04-25T02:59:42.566Z,7.40
2023-04-25T03:02:09.294Z,7.70
2023-04-25T03:04:36.287Z,7.25
2023-04-25T03:07:03.514Z,7.50
2023-04-25T03:09:30.095Z,8.32
2023-04-25T03:11:56.864Z,7.78
2023-04-25T03:14:23.474Z,8.07
2023-04-25T03:16:50.171Z,8.00
2023-04-25T03:19:19.872Z,8.50
2023-04-25T03:21:46.559Z,8.10
2023-04-25T03:24:13.482Z,8.27
2023-04-25T03:26:40.554Z,8.10
2023-04-25T03:29:07.271Z,8.25
2023-04-25T03:31:33.965Z,8.77
2023-04-25T03:34:01.339Z,7.95
2023-04-25T03:36:28.045Z,8.07
2023-04-25T03:38:54.743Z,8.00
2023-04-25T03:41:22.164Z,8.20
2023-04-25T03:43:49.062Z,8.85
2023-04-25T03:46:15.896Z,9.80
2023-04-25T03:48:46.441Z,9.38
2023-04-25T03:51:13.058Z,9.43
2023-04-25T03:53:39.687Z,8.88
2023-04-25T03:56:06.910Z,9.38
2023-04-25T03:58:33.522Z,9.43
2023-04-25T04:01:00.356Z,9.98
2023-04-25T04:03:27.818Z,9.05
2023-04-25T04:05:54.839Z,9.30
2023-04-25T04:08:21.600Z,9.40
2023-04-25T04:10:48.526Z,14.25
2023-04-25T04:13:15.342Z,13.85
2023-04-25T04:15:42.123Z,13.10
2023-04-25T04:18:09.092Z,14.90
2023-04-25T04:20:35.938Z,15.13
2023-04-25T04:23:02.614Z,14.43
2023-04-25T04:25:29.965Z,16.70
2023-04-25T04:27:56.662Z,14.90
2023-04-25T04:30:30.792Z,14.18
2023-04-25T04:35:25.836Z,12.80
2023-04-25T04:37:52.636Z,11.10
2023-04-25T04:40:19.664Z,11.55
2023-04-25T04:42:47.665Z,10.70
2023-04-25T04:45:14.742Z,10.55
2023-04-25T04:47:41.709Z,11.00
2023-04-25T04:50:10.329Z,11.18
2023-04-25T04:52:38.078Z,11.38
2023-04-25T04:55:06.538Z,11.45
2023-04-25T04:57:34.085Z,10.93
2023-04-25T05:00:00.961Z,10.57
2023-04-25T05:02:28.452Z,11.30
2023-04-25T05:04:55.625Z,10.23
2023-04-25T05:07:22.666Z,11.02
2023-04-25T05:09:51.155Z,9.85
2023-04-25T05:12:17.792Z,10.60
2023-04-25T05:14:44.776Z,10.77
2023-04-25T05:17:11.807Z,10.32
2023-04-25T05:19:39.033Z,10.73
2023-04-25T05:22:06.202Z,10.73
2023-04-25T05:24:32.816Z,10.07
2023-04-25T05:26:59.494Z,11.32
2023-04-25T05:29:26.448Z,11.13
2023-04-25T05:31:54.130Z,10.85
2023-04-25T05:34:20.938Z,10.32
2023-04-25T05:36:49.575Z,9.85
2023-04-25T05:39:19.346Z,10.45
2023-04-25T05:41:46.036Z,10.70
2023-04-25T05:44:13.036Z,10.85
2023-04-25T05:46:40.071Z,10.30
2023-04-25T05:49:06.804Z,11.23
2023-04-25T05:51:33.749Z,10.68
2023-04-25T05:54:00.704Z,11.43
2023-04-25T05:56:27.410Z,12.25
2023-04-25T05:58:54.622Z,13.15
2023-04-25T06:01:22.930Z,12.70
2023-04-25T06:03:50.084Z,12.40
2023-04-25T06:06:17.497Z,12.15
2023-04-25T06:08:48.413Z,12.40
2023-04-25T06:11:15.085Z,12.57
2023-04-25T06:13:41.950Z,11.32
2023-04-25T06:16:08.838Z,11.55
2023-04-25T06:18:35.802Z,10.40
2023-04-25T06:21:02.741Z,9.57
2023-04-25T06:23:29.578Z,8.82
2023-04-25T06:25:56.258Z,8.93
2023-04-25T06:28:23.273Z,8.95
2023-04-25T06:30:50.030Z,8.13
2023-04-25T06:33:16.624Z,8.27
2023-04-25T06:35:43.616Z,7.40
2023-04-25T06:38:10.384Z,6.88
2023-04-25T06:40:37.032Z,7.93
2023-04-25T06:43:03.893Z,7.55
2023-04-25T06:45:30.889Z,7.68
2023-04-25T06:47:57.584Z,7.25
2023-04-25T06:50:24.346Z,5.97
2023-04-25T06:52:51.359Z,7.35
2023-04-25T06:55:18.068Z,6.85
2023-04-25T06:57:45.108Z,6.10
2023-04-25T07:00:12.440Z,6.15
2023-04-25T07:02:39.269Z,6.05
2023-04-25T07:05:06.739Z,6.15
2023-04-25T07:07:33.468Z,5.93
2023-04-25T07:10:00.156Z,6.00
2023-04-25T07:12:26.898Z,5.93
2023-04-25T07:14:53.597Z,6.68
2023-04-25T07:17:20.246Z,6.03
2023-04-25T07:19:47.131Z,5.82
2023-04-25T07:22:13.922Z,5.72
2023-04-25T07:24:40.904Z,5.82
2023-04-25T07:27:07.847Z,5.70
2023-04-25T07:29:37.753Z,6.75
2023-04-25T07:32:04.924Z,5.80
2023-04-25T07:34:31.981Z,5.45
2023-04-25T07:37:00.306Z,5.20
2023-04-25T07:39:27.442Z,5.28
2023-04-25T07:41:55.353Z,5.57
2023-04-25T07:44:22.527Z,5.80
2023-04-25T07:46:49.262Z,5.13
2023-04-25T07:49:16.678Z,5.28
2023-04-25T07:51:44.543Z,5.43
2023-04-25T07:54:15.085Z,5.22
2023-04-25T07:56:52.167Z,5.00
2023-04-25T07:59:20.710Z,5.30
2023-04-25T08:01:47.814Z,5.43
2023-04-25T08:07:32.594Z,5.00
2023-04-25T08:09:59.254Z,4.80
2023-04-25T08:12:26.030Z,5.00
2023-04-25T08:14:52.765Z,4.53
2023-04-25T08:17:19.403Z,4.80
2023-04-25T08:19:46.119Z,4.80
2023-04-25T08:22:13.772Z,5.18
2023-04-25T08:24:40.518Z,4.93
2023-04-25T08:27:08.741Z,4.95
2023-04-25T08:29:36.151Z,5.20
2023-04-25T08:32:02.766Z,4.97
2023-04-25T08:34:29.386Z,4.57
2023-04-25T08:36:56.348Z,4.70
2023-04-25T08:39:23.057Z,4.90
2023-04-25T08:41:49.895Z,4.20
2023-04-25T08:44:17.948Z,4.30
2023-04-25T08:46:50.877Z,3.92
2023-04-25T08:49:20.065Z,3.75
2023-04-25T08:51:48.330Z,4.18
2023-04-25T08:54:30.210Z,3.85
2023-04-25T08:57:05.756Z,4.03
2023-04-25T08:59:33.452Z,4.20
2023-04-25T09:02:02.160Z,3.33
2023-04-25T09:04:31.253Z,3.83
2023-04-25T09:06:58.036Z,3.70
2023-04-25T09:09:25.460Z,4.13
2023-04-25T09:11:56.017Z,3.75
2023-04-25T09:14:26.163Z,3.63
2023-04-25T09:17:00.589Z,4.30
2023-04-25T09:19:39.836Z,4.05
2023-04-25T09:22:08.579Z,3.63
2023-04-25T09:24:41.000Z,4.03
2023-04-25T09:27:10.071Z,3.83
2023-04-25T09:29:38.879Z,3.80
2023-04-25T09:32:19.983Z,3.60
2023-04-25T09:34:52.046Z,4.40
2023-04-25T09:37:37.074Z,3.53
2023-04-25T09:40:08.424Z,3.45
2023-04-25T09:42:35.754Z,3.90
2023-04-25T09:45:04.880Z,3.90
2023-04-25T09:47:31.981Z,3.95
2023-04-25T09:49:59.482Z,3.90
2023-04-25T09:52:26.797Z,3.90
2023-04-25T09:54:54.113Z,3.80
2023-04-25T09:57:22.316Z,3.80
2023-04-25T09:59:51.148Z,3.60
2023-04-25T10:02:21.397Z,3.65
2023-04-25T10:04:54.007Z,3.60
2023-04-25T10:07:22.465Z,3.50
2023-04-25T10:09:51.454Z,3.83
2023-04-25T10:12:18.232Z,3.88
2023-04-25T10:14:46.878Z,3.60
2023-04-25T10:17:13.821Z,3.80
2023-04-25T10:19:40.530Z,4.10
2023-04-25T10:22:19.751Z,4.00
2023-04-25T10:24:47.755Z,3.70
2023-04-25T10:27:14.668Z,3.55
2023-04-25T10:29:44.428Z,3.50
2023-04-25T10:32:11.419Z,3.72
2023-04-25T10:34:48.290Z,3.28
2023-04-25T10:37:15.287Z,3.35
2023-04-25T10:39:43.453Z,3.50
2023-04-25T10:42:10.323Z,3.63
2023-04-25T10:44:39.192Z,3.92
2023-04-25T10:47:08.306Z,4.28
2023-04-25T10:49:42.507Z,3.90
2023-04-25T10:52:12.813Z,3.90
2023-04-25T10:54:59.184Z,3.83
2023-04-25T10:57:39.879Z,3.60
2023-04-25T11:00:10.795Z,4.40
2023-04-25T11:02:54.622Z,3.35
2023-04-25T11:05:54.959Z,3.42
2023-04-25T11:08:48.815Z,3.70
2023-04-25T11:11:17.398Z,3.50
2023-04-25T11:13:48.477Z,3.92
2023-04-25T11:18:48.854Z,3.03
2023-04-25T11:21:15.806Z,3.40
2023-04-25T11:23:48.896Z,4.20
2023-04-25T11:26:16.362Z,3.43
2023-04-25T11:28:46.318Z,4.57
2023-04-25T11:31:12.997Z,3.35
2023-04-25T11:33:41.790Z,3.30
2023-04-25T11:36:08.662Z,3.30
2023-04-25T11:38:35.659Z,3.28
2023-04-25T11:41:02.772Z,3.15
2023-04-25T11:43:29.477Z,3.53
2023-04-25T11:45:56.657Z,3.53
2023-04-25T11:48:25.883Z,3.10
2023-04-25T11:50:54.595Z,3.20
2023-04-25T11:53:21.507Z,2.63
2023-04-25T11:55:48.947Z,3.22
2023-04-25T11:58:15.577Z,3.20
2023-04-25T12:00:50.615Z,3.03
2023-04-25T12:03:19.777Z,2.83
2023-04-25T12:05:47.623Z,3.40
2023-04-25T12:08:15.516Z,3.70
2023-04-25T12:10:44.215Z,3.17
2023-04-25T12:13:27.810Z,3.45
2023-04-25T12:15:57.748Z,3.80
2023-04-25T12:18:28.951Z,3.90
2023-04-25T12:20:56.101Z,3.75
2023-04-25T12:23:29.743Z,3.28
2023-04-25T12:25:56.934Z,3.50
2023-04-25T12:28:25.307Z,3.60
2023-04-25T12:31:07.892Z,4.15
2023-04-25T12:33:38.717Z,4.20
2023-04-25T12:36:10.369Z,4.10
2023-04-25T12:38:41.785Z,4.10
2023-04-25T12:41:09.136Z,3.80
2023-04-25T12:43:36.328Z,3.47
2023-04-25T12:46:03.035Z,3.03
2023-04-25T12:48:29.713Z,3.10
2023-04-25T12:50:56.483Z,3.03
2023-04-25T12:53:25.377Z,3.20
2023-04-25T12:55:52.423Z,2.83
2023-04-25T12:58:20.173Z,2.13
2023-04-25T13:00:47.359Z,2.00
2023-04-25T13:03:14.360Z,1.70
2023-04-25T13:05:41.354Z,1.70
2023-04-25T13:08:08.493Z,1.60
2023-04-25T13:10:35.196Z,1.60
2023-04-25T13:13:02.381Z,2.10
2023-04-25T13:15:29.568Z,1.55
2023-04-25T13:17:57.221Z,1.67
2023-04-25T13:20:24.135Z,2.00
2023-04-25T13:22:50.954Z,1.70
2023-04-25T13:25:17.739Z,1.65
2023-04-25T13:27:45.843Z,1.90
2023-04-25T13:30:13.101Z,1.80
2023-04-25T13:32:40.652Z,1.88
2023-04-25T13:35:10.778Z,1.80
2023-04-25T13:37:38.398Z,1.90
2023-04-25T13:40:09.962Z,2.00
2023-04-25T13:42:37.834Z,1.85
2023-04-25T13:45:04.700Z,2.28
2023-04-25T13:47:31.708Z,2.25
2023-04-25T13:49:58.711Z,2.10
2023-04-25T13:52:25.444Z,2.10
2023-04-25T13:54:52.283Z,2.17
2023-04-25T13:57:19.685Z,1.90
2023-04-25T13:59:47.500Z,2.35
2023-04-25T14:02:14.456Z,1.92
2023-04-25T14:04:41.976Z,2.03
2023-04-25T14:07:09.461Z,2.03
2023-04-25T14:09:36.319Z,1.90
2023-04-25T14:12:03.232Z,2.20
2023-04-25T14:14:29.993Z,2.90
2023-04-25T14:16:58.093Z,3.10
2023-04-25T14:19:25.797Z,3.60
2023-04-25T14:21:52.432Z,3.08
2023-04-25T14:24:19.186Z,2.47
2023-04-25T14:26:46.104Z,2.83
2023-04-25T14:29:13.166Z,2.17
2023-04-25T14:31:41.495Z,1.88
2023-04-25T14:34:09.064Z,1.80
2023-04-25T14:36:37.467Z,1.48
2023-04-25T14:39:06.304Z,33.38
2023-04-25T14:41:33.345Z,40.85
2023-04-25T14:44:00.060Z,37.88
2023-04-25T14:46:27.680Z,36.28
2023-04-25T14:48:56.875Z,49.58
2023-04-25T14:51:23.709Z,92.65
2023-04-25T14:53:52.034Z,76.03
2023-04-25T14:56:19.813Z,45.28
2023-04-25T15:01:14.083Z,36.63
2023-04-25T15:03:48.607Z,58.58
2023-04-25T15:06:15.588Z,124.00
2023-04-25T15:08:42.225Z,52.63
2023-04-25T15:11:09.129Z,30.52
2023-04-25T15:13:36.004Z,45.13
2023-04-25T15:16:02.793Z,31.38
2023-04-25T15:18:29.469Z,32.67
2023-04-25T15:20:56.170Z,38.17
2023-04-25T15:23:23.055Z,71.38
2023-04-25T15:25:51.626Z,40.42
2023-04-25T15:28:18.373Z,54.20
2023-04-25T15:30:45.750Z,45.97
2023-04-25T15:33:12.537Z,64.70
2023-04-25T15:35:39.227Z,48.42
2023-04-25T15:38:06.615Z,52.22
2023-04-25T15:40:33.344Z,55.40
2023-04-25T15:43:00.591Z,47.28
2023-04-25T15:45:27.395Z,47.28
2023-04-25T15:47:57.386Z,43.95
2023-04-25T15:50:24.960Z,34.78
2023-04-25T15:52:52.187Z,31.27
2023-04-25T15:55:21.853Z,29.33
2023-04-25T15:57:51.223Z,29.42
2023-04-25T16:00:19.551Z,34.70
2023-04-25T16:02:48.647Z,30.42
2023-04-25T16:05:15.831Z,23.80
2023-04-25T16:07:44.026Z,20.00
2023-04-25T16:10:11.820Z,24.33
2023-04-25T16:12:42.093Z,24.00
2023-04-25T16:15:09.394Z,21.83
2023-04-25T16:17:36.475Z,40.17
2023-04-25T16:20:09.905Z,52.25
2023-04-25T16:22:38.892Z,31.92
2023-04-25T16:25:06.291Z,71.38
2023-04-25T16:27:34.790Z,32.05
2023-04-25T16:30:02.990Z,35.05
2023-04-25T16:32:29.857Z,37.22
2023-04-25T16:34:58.665Z,33.38
2023-04-25T16:37:26.200Z,40.47
2023-04-25T16:39:53.046Z,39.13
2023-04-25T16:42:19.853Z,45.95
2023-04-25T16:44:46.880Z,40.10
2023-04-25T16:47:16.871Z,43.78
2023-04-25T16:49:45.825Z,49.78
2023-04-25T16:52:13.146Z,75.25
2023-04-25T16:54:40.142Z,62.58
2023-04-25T16:57:11.021Z,84.32
2023-04-25T16:59:39.355Z,82.00
2023-04-25T17:02:08.473Z,83.82
2023-04-25T17:04:41.985Z,72.80
2023-04-25T17:07:09.186Z,80.82
2023-04-25T17:09:36.379Z,87.25
2023-04-25T17:12:10.884Z,88.45
2023-04-25T17:14:37.598Z,85.38
2023-04-25T17:17:04.556Z,87.47
2023-04-25T17:19:39.299Z,81.82
2023-04-25T17:22:06.598Z,92.45
2023-04-25T17:24:33.265Z,94.13
2023-04-25T17:27:00.156Z,78.97
2023-04-25T17:29:27.872Z,85.97
2023-04-25T17:31:54.617Z,80.35
2023-04-25T17:34:23.283Z,88.25
2023-04-25T17:36:50.185Z,95.70
2023-04-25T17:39:23.247Z,90.03
2023-04-25T17:41:50.112Z,87.22
2023-04-25T17:44:16.887Z,92.78
2023-04-25T17:46:43.798Z,93.82
2023-04-25T17:49:11.844Z,95.25
2023-04-25T17:51:38.632Z,86.22
2023-04-25T17:54:05.360Z,87.65
2023-04-25T17:56:34.310Z,86.05
2023-04-25T17:59:01.797Z,89.82
2023-04-25T18:01:30.991Z,85.63
2023-04-25T18:03:57.921Z,89.68
2023-04-25T18:06:24.816Z,101.05
2023-04-25T18:08:53.075Z,82.40
2023-04-25T18:11:20.151Z,85.82
2023-04-25T18:13:47.062Z,92.32
2023-04-25T18:16:16.009Z,95.40
2023-04-25T18:18:52.927Z,97.93
2023-04-25T18:21:20.347Z,93.85
2023-04-25T18:23:47.375Z,88.18
2023-04-25T18:26:14.599Z,98.53
2023-04-25T18:28:41.560Z,77.68
2023-04-25T18:31:09.555Z,96.70
2023-04-25T18:33:36.602Z,88.57
2023-04-25T18:36:03.321Z,88.47
2023-04-25T18:41:10.721Z,94.63
2023-04-25T18:43:46.870Z,90.18
2023-04-25T18:46:13.628Z,88.40
2023-04-25T18:48:42.694Z,84.18
2023-04-25T18:51:09.598Z,89.47
2023-04-25T18:53:37.466Z,89.50
2023-04-25T18:56:04.696Z,96.43
2023-04-25T18:58:31.651Z,103.10
2023-04-25T19:00:58.334Z,90.07
2023-04-25T19:03:25.377Z,95.10
2023-04-25T19:05:52.403Z,83.35
2023-04-25T19:08:19.249Z,91.45
2023-04-25T19:10:46.430Z,79.25
2023-04-25T19:13:13.754Z,76.45
2023-04-25T19:15:40.418Z,77.00
2023-04-25T19:18:07.117Z,72.25
2023-04-25T19:20:34.097Z,76.25
2023-04-25T19:23:01.099Z,77.88
2023-04-25T19:25:27.963Z,74.57
2023-04-25T19:27:54.718Z,105.05
2023-04-25T19:30:21.391Z,68.97
2023-04-25T19:32:48.119Z,81.57
2023-04-25T19:35:15.017Z,123.15
2023-04-25T19:37:47.052Z,75.28
2023-04-25T19:40:20.222Z,67.55
2023-04-25T19:42:47.355Z,94.82
2023-04-25T19:45:14.023Z,189.95
2023-04-25T19:47:42.053Z,61.88
2023-04-25T19:50:10.117Z,64.28
2023-04-25T19:52:38.002Z,112.13
2023-04-25T19:55:05.367Z,56.58
2023-04-25T19:57:37.826Z,74.03
2023-04-25T20:00:08.959Z,61.67
2023-04-25T20:02:35.705Z,50.85
2023-04-25T20:05:04.827Z,50.70
2023-04-25T20:07:31.555Z,54.72
2023-04-25T20:09:58.248Z,48.45
2023-04-25T20:12:24.994Z,51.42
2023-04-25T20:14:51.942Z,59.45
2023-04-25T20:17:18.606Z,63.65
2023-04-25T20:19:45.227Z,61.80
2023-04-25T20:22:12.231Z,65.72
2023-04-25T20:24:39.593Z,62.58
2023-04-25T20:27:07.404Z,61.47
2023-04-25T20:29:34.031Z,53.72
2023-04-25T20:32:02.709Z,49.58
2023-04-25T20:34:31.659Z,45.33
2023-04-25T20:36:58.329Z,51.83
2023-04-25T20:39:25.141Z,54.38
2023-04-25T20:41:52.666Z,55.53
2023-04-25T20:44:23.612Z,54.90
2023-04-25T20:46:51.676Z,58.53
2023-04-25T20:49:23.673Z,55.50
2023-04-25T20:51:50.411Z,59.42
2023-04-25T20:54:17.464Z,57.42
2023-04-25T20:56:44.863Z,58.63
2023-04-25T20:59:12.035Z,58.70
2023-04-25T21:01:38.716Z,56.95
2023-04-25T21:04:06.823Z,67.35
2023-04-25T21:06:34.664Z,64.30
2023-04-25T21:09:01.284Z,60.40
2023-04-25T21:11:28.096Z,58.05
2023-04-25T21:13:54.888Z,67.85
2023-04-25T21:16:21.550Z,57.28
2023-04-25T21:18:48.599Z,61.22
2023-04-25T21:21:15.341Z,52.30
2023-04-25T21:23:42.438Z,67.30
2023-04-25T21:26:09.188Z,60.38
2023-04-25T21:28:35.886Z,74.90
2023-04-25T21:31:03.225Z,68.68
2023-04-25T21:33:30.370Z,62.33
2023-04-25T21:35:57.004Z,62.15
2023-04-25T21:38:23.687Z,60.20
2023-04-25T21:40:50.464Z,85.38
2023-04-25T21:43:17.162Z,58.58
2023-04-25T21:46:06.339Z,77.07
2023-04-25T21:48:30.822Z,67.32
2023-04-25T21:50:57.570Z,92.10
2023-04-25T21:53:26.394Z,70.03
2023-04-25T21:55:53.481Z,56.17
2023-04-25T21:58:20.115Z,64.43
2023-04-25T22:00:46.833Z,83.50
2023-04-25T22:03:16.472Z,65.43
2023-04-25T22:05:44.326Z,56.13
2023-04-25T22:08:11.044Z,54.13
2023-04-25T22:10:40.102Z,67.63
2023-04-25T22:13:06.755Z,53.35
2023-04-25T22:15:33.381Z,55.28
2023-04-25T22:18:00.363Z,68.13
2023-04-25T22:20:28.055Z,52.80
2023-04-25T22:22:55.754Z,44.65
2023-04-25T22:25:26.794Z,49.03
2023-04-25T22:27:53.461Z,52.17
2023-04-25T22:30:20.227Z,73.35
2023-04-25T22:32:47.301Z,49.95
2023-04-25T22:35:14.012Z,73.78
2023-04-25T22:37:41.769Z,54.83
2023-04-25T22:40:11.828Z,64.38
2023-04-25T22:42:43.319Z,64.47
2023-04-25T22:45:11.026Z,51.95
2023-04-25T22:47:38.759Z,46.15
2023-04-25T22:50:13.166Z,90.97
2023-04-25T22:52:40.650Z,108.95
2023-04-25T22:55:07.531Z,85.80
2023-04-25T22:57:37.047Z,74.95
2023-04-25T23:00:09.769Z,98.05
2023-04-25T23:02:37.215Z,58.45
2023-04-25T23:05:06.997Z,75.78
2023-04-25T23:07:35.219Z,56.83
2023-04-25T23:10:02.087Z,98.68
2023-04-25T23:12:28.681Z,55.58
2023-04-25T23:14:55.644Z,61.20
2023-04-25T23:17:22.485Z,80.65
2023-04-25T23:19:49.107Z,97.00
2023-04-25T23:22:16.001Z,65.45
2023-04-25T23:24:42.608Z,63.53
2023-04-25T23:27:09.498Z,51.95
2023-04-25T23:29:36.528Z,50.22
2023-04-25T23:32:03.319Z,56.70
2023-04-25T23:34:31.651Z,73.93
2023-04-25T23:37:00.979Z,51.13
2023-04-25T23:39:28.223Z,61.85
2023-04-25T23:41:55.095Z,66.95
2023-04-25T23:44:23.601Z,46.67
2023-04-25T23:46:50.451Z,53.42
2023-04-25T23:49:17.114Z,60.63
2023-04-25T23:51:43.809Z,63.90
2023-04-25T23:54:10.494Z,60.58
2023-04-25T23:56:37.133Z,69.13
2023-04-25T23:59:04.177Z,87.13
